^^
Station Historical Data
Daily Summary for September 14, 2017 Units:  Metric    English   Both
« Previous Day
Next Day »
Daily Weekly Monthly Yearly Custom
  High: Low: Average:
Temperature: 29 °C 9.1 °C 17.5 °C
Dew Point: 6.2 °C 1.6 °C 4.8 °C
Humidity: 76% 19% 49%
Wind Speed: 22.7km/h 0km/h 6km/h
Wind Gust: 27.4km/h - -
Wind- - SW
Pressure: 1017.5 hPa 1011.1 hPa -
Precipitation: 0 mm    
Historical Graphs
 
 
Tabular Data for September 14, 2017
Time Temperature Dew Point Pressure Wind Wind Speed Wind Gust Humidity Rainfall Rate (Hourly) solar Conditions
02:05 11.9 °C 6.2 °C 1015.8 hPa SW 13 km/h 20.9 km/h 68% 0 mm 0.0 W/m2
02:10 11.9 °C 6.2 °C 1015.8 hPa SW 19.5 km/h 20.9 km/h 68% 0 mm 0.0 W/m2
02:15 11.8 °C 6.1 °C 1015.8 hPa SW 14.3 km/h 20.9 km/h 68% 0 mm 0.0 W/m2
02:20 11.8 °C 6.1 °C 1015.8 hPa SW 19.5 km/h 22.5 km/h 68% 0 mm 0.0 W/m2
02:25 11.7 °C 6 °C 1015.8 hPa SW 17.7 km/h 20.9 km/h 68% 0 mm 0.0 W/m2
02:35 11.7 °C 6.2 °C 1015.8 hPa SW 19.5 km/h 22.5 km/h 69% 0 mm 0.0 W/m2
02:40 11.6 °C 6.1 °C 1015.8 hPa SW 16.3 km/h 20.9 km/h 69% 0 mm 0.0 W/m2
02:45 11.6 °C 6.1 °C 1015.8 hPa SW 22.7 km/h 25.7 km/h 69% 0 mm 0.0 W/m2
02:50 11.6 °C 6.1 °C 1015.8 hPa SW 22.7 km/h 22.7 km/h 69% 0 mm 0.0 W/m2
02:55 11.5 °C 6.2 °C 1015.8 hPa SW 20.9 km/h 22.5 km/h 70% 0 mm 0.0 W/m2
03:05 11.4 °C 6.1 °C 1015.8 hPa SW 19.5 km/h 27.4 km/h 70% 0 mm 0.0 W/m2
03:15 11.3 °C 6 °C 1015.8 hPa SW 20.9 km/h 22.5 km/h 70% 0 mm 0.0 W/m2
03:20 11.3 °C 6 °C 1015.8 hPa SW 20.9 km/h 22.5 km/h 70% 0 mm 0.0 W/m2
03:25 11.2 °C 6.1 °C 1015.8 hPa SSW 17.7 km/h 20.9 km/h 71% 0 mm 0.0 W/m2
03:35 11.2 °C 6.1 °C 1016.1 hPa SW 14.3 km/h 17.7 km/h 71% 0 mm 0.0 W/m2
03:45 11 °C 5.9 °C 1015.8 hPa SW 14.3 km/h 16.1 km/h 71% 0 mm 0.0 W/m2
03:50 10.9 °C 5.8 °C 1016.1 hPa SW 13 km/h 16.1 km/h 71% 0 mm 0.0 W/m2
04:00 10.8 °C 6 °C 1016.1 hPa SW 13 km/h 16.1 km/h 72% 0 mm 0.0 W/m2
04:10 10.7 °C 5.9 °C 1016.5 hPa SW 7.9 km/h 11.3 km/h 72% 0 mm 0.0 W/m2
04:16 10.7 °C 5.9 °C 1016.1 hPa SW 9.7 km/h 14.5 km/h 72% 0 mm 0.0 W/m2
04:21 10.6 °C 5.8 °C 1016.5 hPa SW 9.7 km/h 12.9 km/h 72% 0 mm 0.0 W/m2
04:26 10.6 °C 5.8 °C 1016.1 hPa SW 11.1 km/h 17.7 km/h 72% 0 mm 0.0 W/m2
04:31 10.6 °C 5.8 °C 1016.1 hPa SW 13 km/h 16.1 km/h 72% 0 mm 0.0 W/m2
04:36 10.6 °C 5.8 °C 1016.1 hPa SW 11.1 km/h 17.7 km/h 72% 0 mm 0.0 W/m2
04:41 10.6 °C 5.8 °C 1016.1 hPa SW 9.7 km/h 14.5 km/h 72% 0 mm 0.0 W/m2
04:46 10.5 °C 5.7 °C 1016.1 hPa SW 13 km/h 17.7 km/h 72% 0 mm 0.0 W/m2
04:51 10.5 °C 5.7 °C 1016.1 hPa SW 14.3 km/h 17.7 km/h 72% 0 mm 0.0 W/m2
05:01 10.4 °C 5.6 °C 1016.1 hPa SW 11.1 km/h 17.7 km/h 72% 0 mm 0.0 W/m2
05:06 10.4 °C 5.6 °C 1016.1 hPa SW 13 km/h 17.7 km/h 72% 0 mm 0.0 W/m2
05:11 10.4 °C 5.6 °C 1015.8 hPa SW 13 km/h 14.5 km/h 72% 0 mm 0.0 W/m2
05:16 10.3 °C 5.5 °C 1016.1 hPa SW 7.9 km/h 12.9 km/h 72% 0 mm 0.0 W/m2
05:36 10.2 °C 5.6 °C 1016.1 hPa SW 7.9 km/h 11.3 km/h 73% 0 mm 0.0 W/m2
05:52 10.1 °C 5.5 °C 1016.1 hPa SW 7.9 km/h 9.7 km/h 73% 0 mm 0.0 W/m2
05:57 10 °C 5.4 °C 1016.1 hPa SW 9.7 km/h 11.3 km/h 73% 0 mm 0.0 W/m2
06:02 10 °C 5.4 °C 1016.1 hPa SW 9.7 km/h 12.9 km/h 73% 0 mm 0.0 W/m2
06:07 10 °C 5.4 °C 1016.1 hPa SW 6.4 km/h 11.3 km/h 73% 0 mm 0.0 W/m2
06:12 9.9 °C 5.3 °C 1016.1 hPa SW 7.9 km/h 9.7 km/h 73% 0 mm 0.0 W/m2
06:17 9.8 °C 5.2 °C 1016.1 hPa SW 6.4 km/h 6.4 km/h 73% 0 mm 0.0 W/m2
06:22 9.7 °C 5.3 °C 1016.1 hPa SW 7.9 km/h 8 km/h 74% 0 mm 0.0 W/m2
06:27 9.6 °C 5.2 °C 1016.1 hPa SW 3.2 km/h 8 km/h 74% 0 mm 0.0 W/m2
06:37 9.4 °C 5 °C 1016.1 hPa SW 4.7 km/h 8 km/h 74% 0 mm 0.0 W/m2
06:42 9.3 °C 5.1 °C 1016.1 hPa SW 7.9 km/h 8 km/h 75% 0 mm 0.0 W/m2
06:49 9.2 °C 4.8 °C 1016.1 hPa SW 3.2 km/h 6.4 km/h 74% 0 mm 0.0 W/m2
06:55 9.1 °C 4.9 °C 1016.5 hPa Calm     75% 0 mm 5.0 W/m2
07:02 9.2 °C 5.2 °C 1016.1 hPa SW 9.7 km/h 11.3 km/h 76% 0 mm 16.0 W/m2
07:09 9.2 °C 5.2 °C 1016.1 hPa SW 9.7 km/h 11.3 km/h 76% 0 mm 16.0 W/m2
07:23 9.4 °C 5.2 °C 1016.8 hPa SW 3.2 km/h 6.4 km/h 75% 0 mm 35.0 W/m2
07:37 9.8 °C 5.6 °C 1016.8 hPa SW 4.7 km/h 8 km/h 75% 0 mm 67.0 W/m2
07:49 10.2 °C 5.6 °C 1016.8 hPa Calm     73% 0 mm 95.0 W/m2
08:04 10.8 °C 5.8 °C 1017.2 hPa Calm     71% 0 mm 142.0 W/m2
08:20 11.3 °C 5.8 °C 1017.2 hPa Calm     69% 0 mm 190.0 W/m2
08:29 11.7 °C 5.8 °C 1017.5 hPa Calm     67% 0 mm 243.0 W/m2
08:48 12.2 °C 6 °C 1017.5 hPa Calm     66% 0 mm 288.0 W/m2
08:55 12.4 °C 6 °C 1017.2 hPa Calm     65% 0 mm 322.0 W/m2
09:10 12.7 °C 5.8 °C 1017.5 hPa Calm     63% 0 mm 355.0 W/m2
09:22 13.2 °C 5.8 °C 1017.5 hPa Calm     61% 0 mm 401.0 W/m2
10:46 17.3 °C 6.2 °C 1016.8 hPa Calm     48% 0 mm 615.0 W/m2
10:53 18.2 °C 6.1 °C 1016.8 hPa Calm     45% 0 mm 638.0 W/m2
11:09 18.6 °C 5.8 °C 1016.5 hPa Calm     43% 0 mm 664.0 W/m2
11:30 19.4 °C 6.2 °C 1016.5 hPa Calm     42% 0 mm 687.0 W/m2
11:45 19.9 °C 5.9 °C 1016.5 hPa Calm     40% 0 mm 710.0 W/m2
12:01 20.2 °C 5.8 °C 1016.5 hPa Calm     39% 0 mm 728.0 W/m2
12:15 21.1 °C 5.8 °C 1015.8 hPa Calm     37% 0 mm 740.0 W/m2
12:25 21.7 °C 6 °C 1015.8 hPa Calm     36% 0 mm 744.0 W/m2
12:31 22.1 °C 5.9 °C 1015.1 hPa Calm     35% 0 mm 749.0 W/m2
12:51 22.6 °C 5.5 °C 1015.1 hPa Calm     33% 0 mm 745.0 W/m2
12:57 22.8 °C 5.7 °C 1014.8 hPa Calm     33% 0 mm 744.0 W/m2
13:12 23.4 °C 5.3 °C 1014.4 hPa Calm     31% 0 mm 738.0 W/m2
13:33 23.9 °C 5.7 °C 1014.4 hPa Calm     31% 0 mm 726.0 W/m2
13:42 24.3 °C 5.1 °C 1014.1 hPa WNW 3.2 km/h 11.3 km/h 29% 0 mm 714.0 W/m2
14:04 24.7 °C 5 °C 1013.8 hPa Calm     28% 0 mm 696.0 W/m2
14:19 25.6 °C 5.2 °C 1013.1 hPa WNW 9.7 km/h 12.9 km/h 27% 0 mm 670.0 W/m2
14:34 25.8 °C 5.4 °C 1012.8 hPa Calm     27% 0 mm 643.0 W/m2
14:43 26.1 °C 5.1 °C 1012.8 hPa Calm     26% 0 mm 615.0 W/m2
14:58 27 °C 4.7 °C 1012.1 hPa Calm     24% 0 mm 580.0 W/m2
15:13 27.1 °C 4.2 °C 1011.7 hPa Calm   6.4 km/h 23% 0 mm 547.0 W/m2
15:29 27.4 °C 4.4 °C 1011.4 hPa Calm     23% 0 mm 506.0 W/m2
15:35 27.4 °C 4.4 °C 1011.4 hPa Calm     23% 0 mm 506.0 W/m2
15:44 28 °C 4.3 °C 1011.4 hPa NW 7.9 km/h 12.9 km/h 22% 0 mm 464.0 W/m2
15:59 28.1 °C 4.4 °C 1011.4 hPa Calm   9.7 km/h 22% 0 mm 413.0 W/m2
16:16 28.5 °C 4.1 °C 1011.4 hPa Calm     21% 0 mm 388.0 W/m2
16:25 28.7 °C 3.5 °C 1011.4 hPa Calm   6.4 km/h 20% 0 mm 343.0 W/m2
16:40 28.6 °C 3.4 °C 1011.1 hPa Calm   11.3 km/h 20% 0 mm 297.0 W/m2
16:50 28.8 °C 3.6 °C 1011.1 hPa Calm     20% 0 mm 262.0 W/m2
17:01 28.8 °C 3.6 °C 1011.1 hPa Calm     20% 0 mm 229.0 W/m2
17:16 29 °C 3 °C 1011.1 hPa Calm     19% 0 mm 181.0 W/m2
17:31 28.8 °C 2.9 °C 1011.1 hPa Calm     19% 0 mm 132.0 W/m2
17:36 28.8 °C 2.9 °C 1011.1 hPa Calm     19% 0 mm 132.0 W/m2
17:42 28.7 °C 3.5 °C 1011.1 hPa Calm     20% 0 mm 102.0 W/m2
17:57 28.4 °C 3.3 °C 1011.1 hPa Calm     20% 0 mm 62.0 W/m2
18:13 28.4 °C 3.3 °C 1011.1 hPa Calm     20% 0 mm 40.0 W/m2
18:23 28.1 °C 3 °C 1011.1 hPa Calm     20% 0 mm 18.0 W/m2
18:43 27.2 °C 3 °C 1011.1 hPa Calm     21% 0 mm 0.0 W/m2
18:51 26.4 °C 2.3 °C 1011.1 hPa Calm     21% 0 mm 0.0 W/m2
18:59 25.5 °C 4 °C 1011.1 hPa Calm     25% 0 mm 0.0 W/m2
19:04 25.2 °C 3.8 °C 1011.1 hPa Calm     25% 0 mm 0.0 W/m2
19:12 25.2 °C 3.8 °C 1011.1 hPa Calm     25% 0 mm 0.0 W/m2
19:25 24.5 °C 3.7 °C 1011.1 hPa Calm     26% 0 mm 0.0 W/m2
19:49 23.5 °C 3.9 °C 1011.1 hPa Calm     28% 0 mm 0.0 W/m2
20:01 22.9 °C 3.4 °C 1011.4 hPa Calm     28% 0 mm 0.0 W/m2
20:17 22.2 °C 3.3 °C 1011.7 hPa Calm     29% 0 mm 0.0 W/m2
20:33 21.8 °C 3.5 °C 1011.7 hPa Calm     30% 0 mm 0.0 W/m2
20:48 21.6 °C 3.7 °C 1011.7 hPa Calm     31% 0 mm 0.0 W/m2
20:59 21.3 °C 3.5 °C 1011.7 hPa Calm   8 km/h 31% 0 mm 0.0 W/m2
21:18 21.3 °C 3.5 °C 1011.7 hPa Calm     31% 0 mm 0.0 W/m2
21:25 21.2 °C 3.4 °C 1011.7 hPa NW 9.7 km/h 17.7 km/h 31% 0 mm 0.0 W/m2
22:46 19.4 °C 1.8 °C 1012.1 hPa West 6.4 km/h 11.3 km/h 31% 0 mm 0.0 W/m2
22:52 19.3 °C 1.7 °C 1011.7 hPa West 13 km/h 13 km/h 31% 0 mm 0.0 W/m2
23:00 19.2 °C 1.7 °C 1011.4 hPa West 6.4 km/h 11.3 km/h 31% 0 mm 0.0 W/m2
23:06 19.1 °C 1.6 °C 1011.7 hPa West 7.9 km/h 9.7 km/h 31% 0 mm 0.0 W/m2
23:11 18.9 °C 1.8 °C 1011.7 hPa West 9.7 km/h 11.3 km/h 32% 0 mm 0.0 W/m2
23:16 18.9 °C 1.8 °C 1011.7 hPa West 11.1 km/h 16.1 km/h 32% 0 mm 0.0 W/m2
23:26 18.9 °C 1.8 °C 1011.4 hPa West 7.9 km/h 9.7 km/h 32% 0 mm 0.0 W/m2
23:31 18.8 °C 1.8 °C 1011.4 hPa West 7.9 km/h 11.3 km/h 32% 0 mm 0.0 W/m2
23:40 18.4 °C 1.8 °C 1011.4 hPa West 7.9 km/h 8 km/h 33% 0 mm 0.0 W/m2
23:46 18.4 °C 1.8 °C 1011.4 hPa West 7.9 km/h 11.3 km/h 33% 0 mm 0.0 W/m2
23:56 18.6 °C 2.4 °C 1011.4 hPa West 11.1 km/h 11.3 km/h 34% 0 mm 0.0 W/m2
Canyon Roadhouse, Fishriver Canyon, Namibia
Compliments of Weather Underground - 2.25 mb